sensor_id;sensor_type;location;lat;lon;timestamp;temperature;humidity
19952;DHT22;10137;49.406;19.484;2023-08-08T00:01:57;12.90;99.90
19952;DHT22;10137;49.406;19.484;2023-08-08T00:04:26;12.90;99.90
19952;DHT22;10137;49.406;19.484;2023-08-08T00:07:03;12.90;99.90
19952;DHT22;10137;49.406;19.484;2023-08-08T00:09:31;12.80;99.90
19952;DHT22;10137;49.406;19.484;2023-08-08T00:11:59;12.90;99.90
19952;DHT22;10137;49.406;19.484;2023-08-08T00:14:29;12.90;99.90
19952;DHT22;10137;49.406;19.484;2023-08-08T00:16:57;12.70;99.90
19952;DHT22;10137;49.406;19.484;2023-08-08T00:19:25;12.80;99.90
19952;DHT22;10137;49.406;19.484;2023-08-08T00:21:54;12.80;99.90
19952;DHT22;10137;49.406;19.484;2023-08-08T00:24:22;12.80;99.90
19952;DHT22;10137;49.406;19.484;2023-08-08T00:26:50;12.80;99.90
19952;DHT22;10137;49.406;19.484;2023-08-08T00:29:18;12.80;99.90
19952;DHT22;10137;49.406;19.484;2023-08-08T00:31:47;12.70;99.90
19952;DHT22;10137;49.406;19.484;2023-08-08T00:34:16;12.70;99.90
19952;DHT22;10137;49.406;19.484;2023-08-08T00:36:48;12.80;99.90
19952;DHT22;10137;49.406;19.484;2023-08-08T00:39:16;12.80;99.90
19952;DHT22;10137;49.406;19.484;2023-08-08T00:41:44;12.80;99.90
19952;DHT22;10137;49.406;19.484;2023-08-08T00:44:12;12.70;99.90
19952;DHT22;10137;49.406;19.484;2023-08-08T00:46:40;12.70;99.90
19952;DHT22;10137;49.406;19.484;2023-08-08T00:49:08;12.70;99.90
19952;DHT22;10137;49.406;19.484;2023-08-08T00:51:36;12.70;99.90
19952;DHT22;10137;49.406;19.484;2023-08-08T00:54:05;12.70;99.90
19952;DHT22;10137;49.406;19.484;2023-08-08T00:56:33;12.70;99.90
19952;DHT22;10137;49.406;19.484;2023-08-08T00:59:02;12.70;99.90
19952;DHT22;10137;49.406;19.484;2023-08-08T01:01:30;12.60;99.90
19952;DHT22;10137;49.406;19.484;2023-08-08T01:03:58;12.70;99.90
19952;DHT22;10137;49.406;19.484;2023-08-08T01:06:35;12.60;99.90
19952;DHT22;10137;49.406;19.484;2023-08-08T01:09:10;12.60;99.90
19952;DHT22;10137;49.406;19.484;2023-08-08T01:11:40;12.60;99.90
19952;DHT22;10137;49.406;19.484;2023-08-08T01:14:10;12.60;99.90
19952;DHT22;10137;49.406;19.484;2023-08-08T01:16:41;12.60;99.90
19952;DHT22;10137;49.406;19.484;2023-08-08T01:19:10;12.60;99.90
19952;DHT22;10137;49.406;19.484;2023-08-08T01:21:43;12.50;99.90
19952;DHT22;10137;49.406;19.484;2023-08-08T01:24:18;12.50;99.90
19952;DHT22;10137;49.406;19.484;2023-08-08T01:26:47;12.50;99.90
19952;DHT22;10137;49.406;19.484;2023-08-08T01:29:16;12.50;99.90
19952;DHT22;10137;49.406;19.484;2023-08-08T01:31:44;12.50;99.90
19952;DHT22;10137;49.406;19.484;2023-08-08T01:34:12;12.50;99.90
19952;DHT22;10137;49.406;19.484;2023-08-08T01:36:46;12.50;99.90
19952;DHT22;10137;49.406;19.484;2023-08-08T01:39:26;12.40;99.90
19952;DHT22;10137;49.406;19.484;2023-08-08T01:41:55;12.30;99.90
19952;DHT22;10137;49.406;19.484;2023-08-08T01:44:24;12.20;99.90
19952;DHT22;10137;49.406;19.484;2023-08-08T01:46:53;12.20;99.90
19952;DHT22;10137;49.406;19.484;2023-08-08T01:49:21;12.30;99.90
19952;DHT22;10137;49.406;19.484;2023-08-08T01:51:49;12.40;99.90
19952;DHT22;10137;49.406;19.484;2023-08-08T01:54:20;12.30;99.90
19952;DHT22;10137;49.406;19.484;2023-08-08T01:56:49;12.30;99.90
19952;DHT22;10137;49.406;19.484;2023-08-08T01:59:17;12.20;99.90
19952;DHT22;10137;49.406;19.484;2023-08-08T02:01:45;12.30;99.90
19952;DHT22;10137;49.406;19.484;2023-08-08T02:04:14;12.20;99.90
19952;DHT22;10137;49.406;19.484;2023-08-08T02:06:42;12.20;99.90
19952;DHT22;10137;49.406;19.484;2023-08-08T02:09:10;12.20;99.90
19952;DHT22;10137;49.406;19.484;2023-08-08T02:11:39;12.10;99.90
19952;DHT22;10137;49.406;19.484;2023-08-08T02:14:07;12.10;99.90
19952;DHT22;10137;49.406;19.484;2023-08-08T02:16:36;12.00;99.90
19952;DHT22;10137;49.406;19.484;2023-08-08T02:19:04;12.00;99.90
19952;DHT22;10137;49.406;19.484;2023-08-08T02:21:32;12.00;99.90
19952;DHT22;10137;49.406;19.484;2023-08-08T02:24:00;11.90;99.90
19952;DHT22;10137;49.406;19.484;2023-08-08T02:26:29;11.90;99.90
19952;DHT22;10137;49.406;19.484;2023-08-08T02:28:59;11.80;99.90
19952;DHT22;10137;49.406;19.484;2023-08-08T02:31:27;11.90;99.90
19952;DHT22;10137;49.406;19.484;2023-08-08T02:33:55;11.90;99.90
19952;DHT22;10137;49.406;19.484;2023-08-08T02:36:26;11.90;99.90
19952;DHT22;10137;49.406;19.484;2023-08-08T02:38:54;11.90;99.90
19952;DHT22;10137;49.406;19.484;2023-08-08T02:41:23;11.90;99.90
19952;DHT22;10137;49.406;19.484;2023-08-08T02:43:51;11.90;99.90
19952;DHT22;10137;49.406;19.484;2023-08-08T02:46:20;11.90;99.90
19952;DHT22;10137;49.406;19.484;2023-08-08T02:48:48;12.00;99.90
19952;DHT22;10137;49.406;19.484;2023-08-08T02:51:17;12.00;99.90
19952;DHT22;10137;49.406;19.484;2023-08-08T02:53:46;11.90;99.90
19952;DHT22;10137;49.406;19.484;2023-08-08T02:56:14;11.90;99.90
19952;DHT22;10137;49.406;19.484;2023-08-08T02:58:42;11.80;99.90
19952;DHT22;10137;49.406;19.484;2023-08-08T03:01:10;11.80;99.90
19952;DHT22;10137;49.406;19.484;2023-08-08T03:03:40;11.80;99.90
19952;DHT22;10137;49.406;19.484;2023-08-08T03:06:08;11.70;99.90
19952;DHT22;10137;49.406;19.484;2023-08-08T03:08:44;11.70;99.90
19952;DHT22;10137;49.406;19.484;2023-08-08T03:11:14;11.60;99.90
19952;DHT22;10137;49.406;19.484;2023-08-08T03:13:43;11.70;99.90
19952;DHT22;10137;49.406;19.484;2023-08-08T03:16:11;11.60;99.90
19952;DHT22;10137;49.406;19.484;2023-08-08T03:18:41;11.60;99.90
19952;DHT22;10137;49.406;19.484;2023-08-08T03:21:09;11.60;99.90
19952;DHT22;10137;49.406;19.484;2023-08-08T03:23:38;11.60;99.90
19952;DHT22;10137;49.406;19.484;2023-08-08T03:26:06;11.70;99.90
19952;DHT22;10137;49.406;19.484;2023-08-08T03:28:34;11.60;99.90
19952;DHT22;10137;49.406;19.484;2023-08-08T03:31:04;11.70;99.90
19952;DHT22;10137;49.406;19.484;2023-08-08T03:33:35;11.70;99.90
19952;DHT22;10137;49.406;19.484;2023-08-08T03:36:04;11.70;99.90
19952;DHT22;10137;49.406;19.484;2023-08-08T03:38:31;11.70;99.90
19952;DHT22;10137;49.406;19.484;2023-08-08T03:41:01;11.70;99.90
19952;DHT22;10137;49.406;19.484;2023-08-08T03:43:28;11.70;99.90
19952;DHT22;10137;49.406;19.484;2023-08-08T03:45:56;11.60;99.90
19952;DHT22;10137;49.406;19.484;2023-08-08T03:48:25;11.60;99.90
19952;DHT22;10137;49.406;19.484;2023-08-08T03:50:56;11.60;99.90
19952;DHT22;10137;49.406;19.484;2023-08-08T03:53:25;11.60;99.90
19952;DHT22;10137;49.406;19.484;2023-08-08T03:55:53;11.60;99.90
19952;DHT22;10137;49.406;19.484;2023-08-08T03:58:21;11.70;99.90
19952;DHT22;10137;49.406;19.484;2023-08-08T04:00:49;11.60;99.90
19952;DHT22;10137;49.406;19.484;2023-08-08T04:03:18;11.60;99.90
19952;DHT22;10137;49.406;19.484;2023-08-08T04:05:46;11.70;99.90
19952;DHT22;10137;49.406;19.484;2023-08-08T04:08:16;11.70;99.90
19952;DHT22;10137;49.406;19.484;2023-08-08T04:10:48;11.70;99.90
19952;DHT22;10137;49.406;19.484;2023-08-08T04:13:14;11.80;99.90
19952;DHT22;10137;49.406;19.484;2023-08-08T04:15:43;11.70;99.90
19952;DHT22;10137;49.406;19.484;2023-08-08T04:18:14;11.80;99.90
19952;DHT22;10137;49.406;19.484;2023-08-08T04:20:42;11.80;99.90
19952;DHT22;10137;49.406;19.484;2023-08-08T04:23:11;11.80;99.90
19952;DHT22;10137;49.406;19.484;2023-08-08T04:25:39;11.80;99.90
19952;DHT22;10137;49.406;19.484;2023-08-08T04:28:09;11.80;99.90
19952;DHT22;10137;49.406;19.484;2023-08-08T04:30:37;11.80;99.90
19952;DHT22;10137;49.406;19.484;2023-08-08T04:33:06;11.80;99.90
19952;DHT22;10137;49.406;19.484;2023-08-08T04:35:34;11.80;99.90
19952;DHT22;10137;49.406;19.484;2023-08-08T04:38:03;11.90;99.90
19952;DHT22;10137;49.406;19.484;2023-08-08T04:40:35;11.90;99.90
19952;DHT22;10137;49.406;19.484;2023-08-08T04:43:05;11.90;99.90
19952;DHT22;10137;49.406;19.484;2023-08-08T04:45:37;11.90;99.90
19952;DHT22;10137;49.406;19.484;2023-08-08T04:48:10;11.80;99.90
19952;DHT22;10137;49.406;19.484;2023-08-08T04:50:40;11.90;99.90
19952;DHT22;10137;49.406;19.484;2023-08-08T04:53:08;11.90;99.90
19952;DHT22;10137;49.406;19.484;2023-08-08T04:55:37;12.00;99.90
19952;DHT22;10137;49.406;19.484;2023-08-08T04:58:06;12.00;99.90
19952;DHT22;10137;49.406;19.484;2023-08-08T05:00:38;12.00;99.90
19952;DHT22;10137;49.406;19.484;2023-08-08T05:03:06;12.00;99.90
19952;DHT22;10137;49.406;19.484;2023-08-08T05:05:34;12.10;99.90
19952;DHT22;10137;49.406;19.484;2023-08-08T05:08:03;12.30;99.90
19952;DHT22;10137;49.406;19.484;2023-08-08T05:10:30;12.40;99.90
19952;DHT22;10137;49.406;19.484;2023-08-08T05:12:58;12.60;99.90
19952;DHT22;10137;49.406;19.484;2023-08-08T05:15:26;12.80;99.90
19952;DHT22;10137;49.406;19.484;2023-08-08T05:17:58;13.00;99.90
19952;DHT22;10137;49.406;19.484;2023-08-08T05:20:26;13.20;99.90
19952;DHT22;10137;49.406;19.484;2023-08-08T05:22:54;13.50;99.90
19952;DHT22;10137;49.406;19.484;2023-08-08T05:25:23;13.70;99.90
19952;DHT22;10137;49.406;19.484;2023-08-08T05:27:52;13.90;99.90
19952;DHT22;10137;49.406;19.484;2023-08-08T05:30:21;14.20;99.90
19952;DHT22;10137;49.406;19.484;2023-08-08T05:32:48;14.30;99.90
19952;DHT22;10137;49.406;19.484;2023-08-08T05:35:21;14.30;99.90
19952;DHT22;10137;49.406;19.484;2023-08-08T05:37:49;14.30;99.90
19952;DHT22;10137;49.406;19.484;2023-08-08T05:40:17;14.20;99.90
19952;DHT22;10137;49.406;19.484;2023-08-08T05:42:46;14.20;99.90
19952;DHT22;10137;49.406;19.484;2023-08-08T05:45:14;14.30;99.90
19952;DHT22;10137;49.406;19.484;2023-08-08T05:47:42;14.30;99.90
19952;DHT22;10137;49.406;19.484;2023-08-08T05:50:12;14.40;99.90
19952;DHT22;10137;49.406;19.484;2023-08-08T05:52:46;14.60;99.90
19952;DHT22;10137;49.406;19.484;2023-08-08T05:55:15;14.70;99.90
19952;DHT22;10137;49.406;19.484;2023-08-08T05:57:45;15.00;99.90
19952;DHT22;10137;49.406;19.484;2023-08-08T06:00:14;15.20;99.90
19952;DHT22;10137;49.406;19.484;2023-08-08T06:02:43;15.10;99.90
19952;DHT22;10137;49.406;19.484;2023-08-08T06:05:11;15.20;99.90
19952;DHT22;10137;49.406;19.484;2023-08-08T06:07:38;15.20;99.90
19952;DHT22;10137;49.406;19.484;2023-08-08T06:10:10;15.50;99.90
19952;DHT22;10137;49.406;19.484;2023-08-08T06:12:38;15.70;99.90
19952;DHT22;10137;49.406;19.484;2023-08-08T06:15:07;15.90;99.90
19952;DHT22;10137;49.406;19.484;2023-08-08T06:17:34;15.90;99.90
19952;DHT22;10137;49.406;19.484;2023-08-08T06:20:03;15.90;99.90
19952;DHT22;10137;49.406;19.484;2023-08-08T06:22:32;16.00;99.90
19952;DHT22;10137;49.406;19.484;2023-08-08T06:25:00;15.80;99.90
19952;DHT22;10137;49.406;19.484;2023-08-08T06:27:31;15.60;99.90
19952;DHT22;10137;49.406;19.484;2023-08-08T06:29:59;15.50;99.90
19952;DHT22;10137;49.406;19.484;2023-08-08T06:32:33;15.50;99.90
19952;DHT22;10137;49.406;19.484;2023-08-08T06:34:59;15.30;99.90
19952;DHT22;10137;49.406;19.484;2023-08-08T06:37:29;15.10;99.90
19952;DHT22;10137;49.406;19.484;2023-08-08T06:39:59;15.00;99.90
19952;DHT22;10137;49.406;19.484;2023-08-08T06:42:28;15.00;99.90
19952;DHT22;10137;49.406;19.484;2023-08-08T06:45:00;15.00;99.90
19952;DHT22;10137;49.406;19.484;2023-08-08T06:47:28;14.90;99.90
19952;DHT22;10137;49.406;19.484;2023-08-08T06:49:57;15.10;99.90
19952;DHT22;10137;49.406;19.484;2023-08-08T06:52:25;15.50;99.90
19952;DHT22;10137;49.406;19.484;2023-08-08T06:54:55;15.80;99.90
19952;DHT22;10137;49.406;19.484;2023-08-08T06:57:26;15.80;99.90
19952;DHT22;10137;49.406;19.484;2023-08-08T06:59:57;16.10;99.90
19952;DHT22;10137;49.406;19.484;2023-08-08T07:02:30;16.30;99.90
19952;DHT22;10137;49.406;19.484;2023-08-08T07:04:58;16.20;99.90
19952;DHT22;10137;49.406;19.484;2023-08-08T07:07:33;16.10;99.90
19952;DHT22;10137;49.406;19.484;2023-08-08T07:10:06;16.00;99.90
19952;DHT22;10137;49.406;19.484;2023-08-08T07:12:34;16.00;99.90
19952;DHT22;10137;49.406;19.484;2023-08-08T07:15:01;16.10;99.90
19952;DHT22;10137;49.406;19.484;2023-08-08T07:17:34;15.90;99.90
19952;DHT22;10137;49.406;19.484;2023-08-08T07:20:02;15.70;99.90
19952;DHT22;10137;49.406;19.484;2023-08-08T07:22:31;15.60;99.90
19952;DHT22;10137;49.406;19.484;2023-08-08T07:24:58;15.50;99.90
19952;DHT22;10137;49.406;19.484;2023-08-08T07:27:26;15.50;99.90
19952;DHT22;10137;49.406;19.484;2023-08-08T07:29:54;15.40;99.90
19952;DHT22;10137;49.406;19.484;2023-08-08T07:32:20;15.60;99.90
19952;DHT22;10137;49.406;19.484;2023-08-08T07:34:49;16.00;99.90
19952;DHT22;10137;49.406;19.484;2023-08-08T07:37:16;16.30;99.90
19952;DHT22;10137;49.406;19.484;2023-08-08T07:39:43;16.60;99.90
19952;DHT22;10137;49.406;19.484;2023-08-08T07:42:10;16.40;99.90
19952;DHT22;10137;49.406;19.484;2023-08-08T07:44:37;16.40;99.90
19952;DHT22;10137;49.406;19.484;2023-08-08T07:47:05;16.50;99.90
19952;DHT22;10137;49.406;19.484;2023-08-08T07:49:32;16.50;99.90
19952;DHT22;10137;49.406;19.484;2023-08-08T07:52:01;16.80;99.90
19952;DHT22;10137;49.406;19.484;2023-08-08T07:54:28;17.10;99.90
19952;DHT22;10137;49.406;19.484;2023-08-08T07:56:55;17.40;99.90
19952;DHT22;10137;49.406;19.484;2023-08-08T07:59:22;17.50;99.90
19952;DHT22;10137;49.406;19.484;2023-08-08T08:01:49;17.80;99.90
19952;DHT22;10137;49.406;19.484;2023-08-08T08:04:16;18.00;99.90
19952;DHT22;10137;49.406;19.484;2023-08-08T08:06:43;18.10;99.90
19952;DHT22;10137;49.406;19.484;2023-08-08T08:09:12;18.30;99.90
19952;DHT22;10137;49.406;19.484;2023-08-08T08:11:39;18.70;99.90
19952;DHT22;10137;49.406;19.484;2023-08-08T08:14:06;18.70;99.90
19952;DHT22;10137;49.406;19.484;2023-08-08T08:16:33;18.40;99.90
19952;DHT22;10137;49.406;19.484;2023-08-08T08:19:01;18.30;99.90
19952;DHT22;10137;49.406;19.484;2023-08-08T08:21:28;18.20;99.90
19952;DHT22;10137;49.406;19.484;2023-08-08T08:23:55;18.20;99.90
19952;DHT22;10137;49.406;19.484;2023-08-08T08:26:24;18.00;99.90
19952;DHT22;10137;49.406;19.484;2023-08-08T08:28:51;17.80;99.90
19952;DHT22;10137;49.406;19.484;2023-08-08T08:31:18;18.00;99.90
19952;DHT22;10137;49.406;19.484;2023-08-08T08:33:45;18.40;99.90
19952;DHT22;10137;49.406;19.484;2023-08-08T08:36:12;18.70;99.90
19952;DHT22;10137;49.406;19.484;2023-08-08T08:38:40;19.00;99.90
19952;DHT22;10137;49.406;19.484;2023-08-08T08:41:08;19.20;98.70
19952;DHT22;10137;49.406;19.484;2023-08-08T08:43:39;19.30;98.90
19952;DHT22;10137;49.406;19.484;2023-08-08T08:46:08;19.40;98.30
19952;DHT22;10137;49.406;19.484;2023-08-08T08:48:37;19.50;98.60
19952;DHT22;10137;49.406;19.484;2023-08-08T08:51:04;19.90;98.50
19952;DHT22;10137;49.406;19.484;2023-08-08T08:53:32;19.90;95.30
19952;DHT22;10137;49.406;19.484;2023-08-08T08:56:01;20.20;94.10
19952;DHT22;10137;49.406;19.484;2023-08-08T08:58:29;20.30;92.80
19952;DHT22;10137;49.406;19.484;2023-08-08T09:00:58;20.50;94.50
19952;DHT22;10137;49.406;19.484;2023-08-08T09:03:25;20.40;93.90
19952;DHT22;10137;49.406;19.484;2023-08-08T09:05:53;19.90;94.00
19952;DHT22;10137;49.406;19.484;2023-08-08T09:08:21;19.40;93.60
19952;DHT22;10137;49.406;19.484;2023-08-08T09:10:48;19.40;95.40
19952;DHT22;10137;49.406;19.484;2023-08-08T09:13:16;18.80;95.50
19952;DHT22;10137;49.406;19.484;2023-08-08T09:15:47;18.70;96.30
19952;DHT22;10137;49.406;19.484;2023-08-08T09:18:17;18.30;96.60
19952;DHT22;10137;49.406;19.484;2023-08-08T09:20:47;18.10;97.80
19952;DHT22;10137;49.406;19.484;2023-08-08T09:23:16;17.80;99.90
19952;DHT22;10137;49.406;19.484;2023-08-08T09:25:44;17.30;99.90
19952;DHT22;10137;49.406;19.484;2023-08-08T09:28:11;17.20;99.90
19952;DHT22;10137;49.406;19.484;2023-08-08T09:30:38;17.10;99.90
19952;DHT22;10137;49.406;19.484;2023-08-08T09:33:09;17.30;99.90
19952;DHT22;10137;49.406;19.484;2023-08-08T09:35:43;17.40;99.90
19952;DHT22;10137;49.406;19.484;2023-08-08T09:38:12;17.60;99.90
19952;DHT22;10137;49.406;19.484;2023-08-08T09:40:39;17.70;99.90
19952;DHT22;10137;49.406;19.484;2023-08-08T09:43:09;17.70;99.90
19952;DHT22;10137;49.406;19.484;2023-08-08T09:45:39;17.70;99.90
19952;DHT22;10137;49.406;19.484;2023-08-08T09:48:12;17.70;99.90
19952;DHT22;10137;49.406;19.484;2023-08-08T09:50:43;17.80;99.90
19952;DHT22;10137;49.406;19.484;2023-08-08T09:53:14;17.80;99.90
19952;DHT22;10137;49.406;19.484;2023-08-08T09:55:44;17.70;99.90
19952;DHT22;10137;49.406;19.484;2023-08-08T09:58:12;17.70;99.90
19952;DHT22;10137;49.406;19.484;2023-08-08T10:00:45;17.60;99.90
19952;DHT22;10137;49.406;19.484;2023-08-08T10:03:17;17.60;99.90
19952;DHT22;10137;49.406;19.484;2023-08-08T10:05:48;17.60;99.90
19952;DHT22;10137;49.406;19.484;2023-08-08T10:08:18;17.60;99.90
19952;DHT22;10137;49.406;19.484;2023-08-08T10:10:50;17.70;99.90
19952;DHT22;10137;49.406;19.484;2023-08-08T10:13:22;18.00;99.90
19952;DHT22;10137;49.406;19.484;2023-08-08T10:15:51;18.10;99.80
19952;DHT22;10137;49.406;19.484;2023-08-08T10:18:21;18.30;99.90
19952;DHT22;10137;49.406;19.484;2023-08-08T10:20:51;18.40;99.90
19952;DHT22;10137;49.406;19.484;2023-08-08T10:23:19;18.50;99.40
19952;DHT22;10137;49.406;19.484;2023-08-08T10:25:48;18.80;99.90
19952;DHT22;10137;49.406;19.484;2023-08-08T10:28:17;18.60;97.10
19952;DHT22;10137;49.406;19.484;2023-08-08T10:30:46;18.60;98.10
19952;DHT22;10137;49.406;19.484;2023-08-08T10:33:18;18.50;98.30
19952;DHT22;10137;49.406;19.484;2023-08-08T10:35:57;18.30;98.10
19952;DHT22;10137;49.406;19.484;2023-08-08T10:38:25;18.30;97.20
19952;DHT22;10137;49.406;19.484;2023-08-08T10:41:02;18.40;98.30
19952;DHT22;10137;49.406;19.484;2023-08-08T10:43:31;18.50;98.00
19952;DHT22;10137;49.406;19.484;2023-08-08T10:46:01;18.50;96.30
19952;DHT22;10137;49.406;19.484;2023-08-08T10:48:30;18.60;98.10
19952;DHT22;10137;49.406;19.484;2023-08-08T10:51:06;18.50;97.70
19952;DHT22;10137;49.406;19.484;2023-08-08T10:53:36;18.00;96.80
19952;DHT22;10137;49.406;19.484;2023-08-08T10:56:05;17.80;97.10
19952;DHT22;10137;49.406;19.484;2023-08-08T10:58:37;17.70;98.60
19952;DHT22;10137;49.406;19.484;2023-08-08T11:01:09;17.60;98.60
19952;DHT22;10137;49.406;19.484;2023-08-08T11:03:40;17.50;99.50
19952;DHT22;10137;49.406;19.484;2023-08-08T11:06:17;17.60;99.00
19952;DHT22;10137;49.406;19.484;2023-08-08T11:08:46;17.70;99.40
19952;DHT22;10137;49.406;19.484;2023-08-08T11:11:14;17.70;97.60
19952;DHT22;10137;49.406;19.484;2023-08-08T11:13:51;17.70;98.00
19952;DHT22;10137;49.406;19.484;2023-08-08T11:16:21;17.70;98.60
19952;DHT22;10137;49.406;19.484;2023-08-08T11:18:55;17.70;98.40
19952;DHT22;10137;49.406;19.484;2023-08-08T11:21:26;17.50;99.00
19952;DHT22;10137;49.406;19.484;2023-08-08T11:24:00;17.50;98.90
19952;DHT22;10137;49.406;19.484;2023-08-08T11:26:29;17.30;97.90
19952;DHT22;10137;49.406;19.484;2023-08-08T11:28:59;17.30;98.10
19952;DHT22;10137;49.406;19.484;2023-08-08T11:31:29;17.40;98.30
19952;DHT22;10137;49.406;19.484;2023-08-08T11:33:59;17.50;98.90
19952;DHT22;10137;49.406;19.484;2023-08-08T11:36:33;17.50;99.40
19952;DHT22;10137;49.406;19.484;2023-08-08T11:39:04;17.60;99.70
19952;DHT22;10137;49.406;19.484;2023-08-08T11:41:35;17.80;99.80
19952;DHT22;10137;49.406;19.484;2023-08-08T11:44:08;18.10;99.00
19952;DHT22;10137;49.406;19.484;2023-08-08T11:46:44;18.10;98.00
19952;DHT22;10137;49.406;19.484;2023-08-08T11:49:14;18.10;97.50
19952;DHT22;10137;49.406;19.484;2023-08-08T11:51:48;18.00;95.80
19952;DHT22;10137;49.406;19.484;2023-08-08T11:54:19;17.90;97.10
19952;DHT22;10137;49.406;19.484;2023-08-08T11:56:52;17.90;97.20
19952;DHT22;10137;49.406;19.484;2023-08-08T11:59:20;17.90;97.40
19952;DHT22;10137;49.406;19.484;2023-08-08T12:01:49;17.80;96.20
19952;DHT22;10137;49.406;19.484;2023-08-08T12:04:21;17.70;95.90
19952;DHT22;10137;49.406;19.484;2023-08-08T12:07:01;17.50;96.20
19952;DHT22;10137;49.406;19.484;2023-08-08T12:09:31;17.30;95.80
19952;DHT22;10137;49.406;19.484;2023-08-08T12:11:59;17.30;96.70
19952;DHT22;10137;49.406;19.484;2023-08-08T12:14:28;17.20;96.20
19952;DHT22;10137;49.406;19.484;2023-08-08T12:16:58;17.20;96.60
19952;DHT22;10137;49.406;19.484;2023-08-08T12:19:42;17.20;96.80
19952;DHT22;10137;49.406;19.484;2023-08-08T12:22:23;17.20;97.30
19952;DHT22;10137;49.406;19.484;2023-08-08T12:24:51;17.40;98.30
19952;DHT22;10137;49.406;19.484;2023-08-08T12:27:19;17.50;98.90
19952;DHT22;10137;49.406;19.484;2023-08-08T12:29:49;17.60;98.30
19952;DHT22;10137;49.406;19.484;2023-08-08T12:32:19;17.60;98.20
19952;DHT22;10137;49.406;19.484;2023-08-08T12:34:52;17.60;98.60
19952;DHT22;10137;49.406;19.484;2023-08-08T12:37:26;17.70;99.10
19952;DHT22;10137;49.406;19.484;2023-08-08T12:39:55;17.60;97.40
19952;DHT22;10137;49.406;19.484;2023-08-08T12:42:22;17.60;97.60
19952;DHT22;10137;49.406;19.484;2023-08-08T12:44:50;17.60;98.30
19952;DHT22;10137;49.406;19.484;2023-08-08T12:47:19;17.40;98.00
19952;DHT22;10137;49.406;19.484;2023-08-08T12:49:48;17.20;98.40
19952;DHT22;10137;49.406;19.484;2023-08-08T12:52:16;17.00;95.10
19952;DHT22;10137;49.406;19.484;2023-08-08T12:54:47;16.90;97.10
19952;DHT22;10137;49.406;19.484;2023-08-08T12:57:19;16.80;98.80
19952;DHT22;10137;49.406;19.484;2023-08-08T12:59:47;16.60;99.50
19952;DHT22;10137;49.406;19.484;2023-08-08T13:02:15;16.60;99.90
19952;DHT22;10137;49.406;19.484;2023-08-08T13:04:43;16.70;99.90
19952;DHT22;10137;49.406;19.484;2023-08-08T13:07:10;16.80;99.90
19952;DHT22;10137;49.406;19.484;2023-08-08T13:09:41;17.00;99.90
19952;DHT22;10137;49.406;19.484;2023-08-08T13:12:13;17.10;99.90
19952;DHT22;10137;49.406;19.484;2023-08-08T13:14:41;17.30;99.90
19952;DHT22;10137;49.406;19.484;2023-08-08T13:17:12;17.30;99.90
19952;DHT22;10137;49.406;19.484;2023-08-08T13:19:41;17.30;99.90
19952;DHT22;10137;49.406;19.484;2023-08-08T13:22:10;17.30;99.90
19952;DHT22;10137;49.406;19.484;2023-08-08T13:24:40;17.30;99.90
19952;DHT22;10137;49.406;19.484;2023-08-08T13:27:12;17.40;99.90
19952;DHT22;10137;49.406;19.484;2023-08-08T13:29:41;17.60;99.90
19952;DHT22;10137;49.406;19.484;2023-08-08T13:32:11;17.60;99.90
19952;DHT22;10137;49.406;19.484;2023-08-08T13:34:43;17.60;99.90
19952;DHT22;10137;49.406;19.484;2023-08-08T13:37:11;17.50;99.90
19952;DHT22;10137;49.406;19.484;2023-08-08T13:39:42;17.50;99.90
19952;DHT22;10137;49.406;19.484;2023-08-08T13:42:15;17.50;99.70
19952;DHT22;10137;49.406;19.484;2023-08-08T13:44:52;17.60;99.30
19952;DHT22;10137;49.406;19.484;2023-08-08T13:47:19;17.60;97.70
19952;DHT22;10137;49.406;19.484;2023-08-08T13:49:49;17.50;97.60
19952;DHT22;10137;49.406;19.484;2023-08-08T13:52:21;17.60;97.80
19952;DHT22;10137;49.406;19.484;2023-08-08T13:54:55;17.70;97.40
19952;DHT22;10137;49.406;19.484;2023-08-08T13:57:50;17.80;96.80
19952;DHT22;10137;49.406;19.484;2023-08-08T14:00:27;17.70;96.40
19952;DHT22;10137;49.406;19.484;2023-08-08T14:03:12;17.70;96.40
19952;DHT22;10137;49.406;19.484;2023-08-08T14:05:58;17.70;94.10
19952;DHT22;10137;49.406;19.484;2023-08-08T14:08:30;17.70;94.50
19952;DHT22;10137;49.406;19.484;2023-08-08T14:11:10;17.70;94.60
19952;DHT22;10137;49.406;19.484;2023-08-08T14:13:48;17.70;95.30
19952;DHT22;10137;49.406;19.484;2023-08-08T14:16:35;17.80;95.50
19952;DHT22;10137;49.406;19.484;2023-08-08T14:19:17;17.70;94.80
19952;DHT22;10137;49.406;19.484;2023-08-08T14:22:00;17.80;95.50
19952;DHT22;10137;49.406;19.484;2023-08-08T14:24:27;17.90;95.00
19952;DHT22;10137;49.406;19.484;2023-08-08T14:26:55;17.80;95.20
19952;DHT22;10137;49.406;19.484;2023-08-08T14:29:26;17.80;93.60
19952;DHT22;10137;49.406;19.484;2023-08-08T14:31:56;17.80;93.50
19952;DHT22;10137;49.406;19.484;2023-08-08T14:34:29;17.90;94.10
19952;DHT22;10137;49.406;19.484;2023-08-08T14:36:57;17.90;94.60
19952;DHT22;10137;49.406;19.484;2023-08-08T14:39:30;17.80;94.40
19952;DHT22;10137;49.406;19.484;2023-08-08T14:41:58;17.70;95.00
19952;DHT22;10137;49.406;19.484;2023-08-08T14:44:29;17.70;95.50
19952;DHT22;10137;49.406;19.484;2023-08-08T14:46:58;17.70;94.60
19952;DHT22;10137;49.406;19.484;2023-08-08T14:49:26;17.70;95.20
19952;DHT22;10137;49.406;19.484;2023-08-08T14:51:56;17.60;94.90
19952;DHT22;10137;49.406;19.484;2023-08-08T14:54:26;17.50;94.10
19952;DHT22;10137;49.406;19.484;2023-08-08T14:56:55;17.50;93.50
19952;DHT22;10137;49.406;19.484;2023-08-08T14:59:28;17.50;93.50
19952;DHT22;10137;49.406;19.484;2023-08-08T15:01:57;17.40;93.80
19952;DHT22;10137;49.406;19.484;2023-08-08T15:04:24;17.40;94.10
19952;DHT22;10137;49.406;19.484;2023-08-08T15:06:55;17.40;95.70
19952;DHT22;10137;49.406;19.484;2023-08-08T15:09:23;17.40;97.10
19952;DHT22;10137;49.406;19.484;2023-08-08T15:11:51;17.50;97.30
19952;DHT22;10137;49.406;19.484;2023-08-08T15:14:21;17.60;95.60
19952;DHT22;10137;49.406;19.484;2023-08-08T15:16:52;17.60;94.80
19952;DHT22;10137;49.406;19.484;2023-08-08T15:19:20;17.60;93.00
19952;DHT22;10137;49.406;19.484;2023-08-08T15:21:48;17.60;91.20
19952;DHT22;10137;49.406;19.484;2023-08-08T15:24:17;17.60;90.80
19952;DHT22;10137;49.406;19.484;2023-08-08T15:26:48;17.50;91.90
19952;DHT22;10137;49.406;19.484;2023-08-08T15:29:18;17.40;91.80
19952;DHT22;10137;49.406;19.484;2023-08-08T15:31:47;17.40;92.50